Time;durP1;ratioP1;P1;durP2;ratioP2;P2;SDS_P1;SDS_P2;PMS_P1;PMS_P2;Temp;Humidity;BMP_temperature;BMP_pressure;BME280_temperature;BME280_humidity;BME280_pressure;Samples;Min_cycle;Max_cycle;Signal;HPM_P1;HPM_P2
2022/09/26 00:01:06;;;;;;;0.70;0.70;;;;;;;19.98;36.88;99723.84;4721784;30;20557;-83
2022/09/26 00:03:33;;;;;;;1.33;0.70;;;;;;;20.03;36.46;99725.78;4721467;30;20035;-83
2022/09/26 00:06:02;;;;;;;0.95;0.60;;;;;;;19.93;36.47;99720.31;4721743;30;20494;-83
2022/09/26 00:08:28;;;;;;;0.82;0.60;;;;;;;19.96;36.17;99726.00;4720560;30;20111;-83
2022/09/26 00:10:58;;;;;;;1.65;0.80;;;;;;;20.03;36.10;99732.00;4718682;30;20040;-83
2022/09/26 00:13:30;;;;;;;0.50;0.50;;;;;;;19.98;35.95;99734.69;4718941;30;20036;-83
2022/09/26 00:15:58;;;;;;;1.25;0.70;;;;;;;19.87;36.70;99712.16;4721335;30;20081;-82
2022/09/26 00:18:24;;;;;;;2.05;0.70;;;;;;;19.89;36.84;99723.53;4721362;30;20509;-83
2022/09/26 00:20:49;;;;;;;0.45;0.45;;;;;;;20.14;36.69;99753.72;4720897;30;20073;-83
2022/09/26 00:23:17;;;;;;;1.95;0.60;;;;;;;20.14;36.37;99749.13;4736185;30;20163;-83
2022/09/26 00:25:47;;;;;;;0.90;0.73;;;;;;;20.00;36.25;99732.53;4721496;30;20093;-83
2022/09/26 00:28:13;;;;;;;1.20;0.60;;;;;;;20.06;36.20;99736.91;4719342;30;20092;-83
2022/09/26 00:30:44;;;;;;;0.60;0.57;;;;;;;20.15;36.10;99747.25;4721348;30;20036;-82
2022/09/26 00:33:10;;;;;;;0.60;0.60;;;;;;;20.06;37.23;99741.50;4720789;30;20437;-82
2022/09/26 00:35:36;;;;;;;0.60;0.60;;;;;;;20.18;36.89;99749.41;4725200;30;20501;-82
2022/09/26 00:38:02;;;;;;;0.75;0.50;;;;;;;19.94;36.40;99711.91;4737936;30;20036;-83
2022/09/26 00:40:27;;;;;;;1.27;0.70;;;;;;;19.99;36.34;99736.34;4717965;30;20028;-83
2022/09/26 00:42:54;;;;;;;0.70;0.70;;;;;;;19.98;36.27;99717.63;4734897;30;20032;-83
2022/09/26 00:45:20;;;;;;;0.63;0.63;;;;;;;20.03;36.07;99729.28;4727902;30;20032;-83
2022/09/26 00:48:04;;;;;;;0.95;0.60;;;;;;;20.11;36.71;99751.53;4730874;30;20097;-83
2022/09/26 00:50:35;;;;;;;0.57;0.57;;;;;;;20.07;36.78;99743.13;4730763;30;20035;-83
2022/09/26 00:53:03;;;;;;;0.60;0.60;;;;;;;19.98;36.70;99733.88;4741771;30;20082;-83
2022/09/26 00:55:33;;;;;;;0.50;0.50;;;;;;;20.16;36.46;99748.84;4727045;30;20043;-83
2022/09/26 00:58:06;;;;;;;0.93;0.77;;;;;;;20.12;36.34;99754.00;4724001;30;20090;-83
2022/09/26 01:00:31;;;;;;;0.43;0.43;;;;;;;19.95;36.17;99732.50;4739620;30;20443;-83
2022/09/26 01:02:57;;;;;;;1.02;0.60;;;;;;;20.04;36.50;99736.34;4721685;30;20105;-83
2022/09/26 01:05:23;;;;;;;1.13;0.80;;;;;;;20.04;36.72;99722.78;4721994;30;20122;-83
2022/09/26 01:07:49;;;;;;;0.50;0.50;;;;;;;20.05;36.69;99729.84;4724239;30;20471;-83
2022/09/26 01:10:15;;;;;;;0.60;0.60;;;;;;;19.90;36.52;99705.38;4725053;30;20071;-83
2022/09/26 01:12:41;;;;;;;0.60;0.60;;;;;;;20.01;36.40;99723.31;4728487;30;20044;-83
2022/09/26 01:15:07;;;;;;;0.60;0.57;;;;;;;20.07;36.10;99724.97;4744721;30;20487;-83
2022/09/26 01:17:34;;;;;;;0.70;0.70;;;;;;;19.91;36.81;99698.88;4730371;30;20067;-83
2022/09/26 01:20:03;;;;;;;0.50;0.50;;;;;;;20.13;36.91;99730.38;4719998;30;20031;-83
2022/09/26 01:22:28;;;;;;;2.35;0.80;;;;;;;20.16;36.63;99735.28;4756048;30;20093;-83
2022/09/26 01:25:08;;;;;;;0.60;0.60;;;;;;;20.12;36.34;99734.19;4756581;30;20039;-83
2022/09/26 01:27:46;;;;;;;0.65;0.65;;;;;;;20.14;36.23;99732.03;4738920;30;20509;-83
2022/09/26 01:30:18;;;;;;;0.50;0.50;;;;;;;20.04;35.93;99711.94;4758046;30;20047;-83
2022/09/26 01:32:57;;;;;;;1.92;0.80;;;;;;;20.11;36.16;99732.56;4724345;30;20043;-83
2022/09/26 01:35:56;;;;;;;0.80;0.60;;;;;;;20.11;36.83;99730.69;4737441;30;20039;-83
2022/09/26 01:38:23;;;;;;;0.50;0.50;;;;;;;19.72;36.71;99676.00;4746318;30;20448;-83
2022/09/26 01:40:57;;;;;;;0.50;0.50;;;;;;;20.10;36.41;99730.94;4745231;30;20048;-83
2022/09/26 01:43:23;;;;;;;0.60;0.60;;;;;;;20.12;36.16;99729.59;4738135;30;20079;-83
2022/09/26 01:46:00;;;;;;;0.73;0.60;;;;;;;19.92;36.40;99716.78;4740714;30;20051;-83
2022/09/26 01:48:48;;;;;;;0.80;0.60;;;;;;;20.11;36.81;99738.81;4727289;30;20040;-83
2022/09/26 01:51:21;;;;;;;0.70;0.50;;;;;;;20.02;36.60;99719.53;4747523;30;20451;-83
2022/09/26 01:54:11;;;;;;;1.00;0.70;;;;;;;20.06;36.40;99723.34;4762013;30;20032;-83
2022/09/26 01:56:38;;;;;;;0.40;0.40;;;;;;;19.85;36.26;99695.34;4732680;30;20051;-83
2022/09/26 01:59:15;;;;;;;0.60;0.60;;;;;;;20.02;36.43;99722.25;4765108;30;20042;-83
2022/09/26 02:01:42;;;;;;;2.25;0.60;;;;;;;19.87;36.94;99695.88;4751759;30;20556;-83
2022/09/26 02:04:10;;;;;;;0.43;0.43;;;;;;;19.94;36.65;99706.50;4726960;30;20075;-83
2022/09/26 02:06:36;;;;;;;0.50;0.50;;;;;;;20.10;36.40;99725.53;4737497;30;20393;-83
2022/09/26 02:09:14;;;;;;;1.00;0.55;;;;;;;20.13;36.04;99722.25;4757955;30;20024;-83
2022/09/26 02:11:40;;;;;;;1.25;0.65;;;;;;;19.97;36.88;99710.56;4734842;30;20042;-83
2022/09/26 02:14:09;;;;;;;0.50;0.45;;;;;;;19.91;36.84;99690.75;4729198;30;20397;-83
2022/09/26 02:17:08;;;;;;;1.95;0.60;;;;;;;19.98;36.40;99702.16;4722019;30;20506;-83
2022/09/26 02:19:42;;;;;;;0.47;0.47;;;;;;;20.06;36.17;99709.78;4725295;30;20040;-83
2022/09/26 02:22:08;;;;;;;0.68;0.50;;;;;;;19.99;36.00;99698.38;4742486;30;20044;-82
2022/09/26 02:24:34;;;;;;;0.50;0.50;;;;;;;20.11;36.49;99711.69;4733933;30;20043;-83
2022/09/26 02:26:59;;;;;;;0.52;0.50;;;;;;;19.97;36.73;99697.00;4722474;30;20398;-82
2022/09/26 02:29:25;;;;;;;0.95;0.60;;;;;;;19.96;36.62;99693.47;4733028;30;20040;-83
2022/09/26 02:31:59;;;;;;;0.50;0.40;;;;;;;20.04;36.42;99711.94;4744979;30;20039;-82
2022/09/26 02:34:25;;;;;;;0.50;0.50;;;;;;;20.03;36.05;99715.72;4728256;30;20032;-82
2022/09/26 02:36:52;;;;;;;0.50;0.50;;;;;;;19.99;36.37;99711.09;4731735;30;20456;-82
2022/09/26 02:39:17;;;;;;;0.82;0.70;;;;;;;19.83;36.61;99672.28;4727992;30;20044;-83
2022/09/26 02:41:59;;;;;;;0.47;0.47;;;;;;;19.96;36.41;99693.47;4731339;30;20532;-83
2022/09/26 02:44:51;;;;;;;0.60;0.50;;;;;;;19.96;36.30;99688.06;4737109;30;20533;-82
2022/09/26 02:47:49;;;;;;;0.60;0.50;;;;;;;20.08;35.98;99707.59;4752330;30;20048;-82
2022/09/26 02:50:36;;;;;;;0.52;0.52;;;;;;;20.06;36.69;99714.41;4747508;30;20028;-82
2022/09/26 02:53:17;;;;;;;0.50;0.50;;;;;;;20.10;36.57;99720.09;4761902;30;20038;-83
2022/09/26 02:56:03;;;;;;;0.52;0.52;;;;;;;19.86;36.34;99682.59;4757707;30;20436;-82
2022/09/26 02:58:43;;;;;;;1.20;0.60;;;;;;;20.01;36.20;99712.47;4747615;30;20414;-83
2022/09/26 03:01:32;;;;;;;0.60;0.60;;;;;;;20.01;36.64;99711.66;4750757;30;20048;-83
2022/09/26 03:04:35;;;;;;;0.60;0.50;;;;;;;19.85;36.59;99689.09;4752445;30;20036;-83
2022/09/26 03:07:07;;;;;;;0.55;0.55;;;;;;;19.87;36.39;99678.81;4743587;30;20036;-83
2022/09/26 03:09:35;;;;;;;0.55;0.50;;;;;;;19.88;36.38;99685.84;4729078;30;20038;-82
2022/09/26 03:12:02;;;;;;;1.20;0.75;;;;;;;20.02;36.46;99714.13;4730303;30;20039;-83
2022/09/26 03:14:30;;;;;;;0.68;0.60;;;;;;;19.86;36.47;99682.59;4732507;30;20028;-83
2022/09/26 03:16:56;;;;;;;0.95;0.50;;;;;;;19.85;36.39;99687.22;4746829;30;20075;-83
2022/09/26 03:19:31;;;;;;;0.80;0.50;;;;;;;20.03;36.34;99715.72;4722425;30;20487;-82
2022/09/26 03:21:57;;;;;;;0.52;0.50;;;;;;;19.88;36.20;99702.91;4753935;30;20092;-83
2022/09/26 03:24:23;;;;;;;0.60;0.50;;;;;;;19.82;36.13;99686.94;4732903;30;20043;-83
2022/09/26 03:26:49;;;;;;;0.60;0.60;;;;;;;19.96;35.99;99698.91;4724233;30;20101;-83
2022/09/26 03:29:16;;;;;;;0.68;0.60;;;;;;;19.86;36.10;99688.00;4726586;30;20028;-83
2022/09/26 03:31:43;;;;;;;0.82;0.50;;;;;;;19.71;36.04;99669.75;4742401;30;20108;-83
2022/09/26 03:34:08;;;;;;;0.68;0.60;;;;;;;19.88;35.92;99697.50;4740529;30;20282;-83
2022/09/26 03:36:34;;;;;;;0.70;0.40;;;;;;;19.86;35.94;99688.00;4721078;30;20054;-83
2022/09/26 03:39:00;;;;;;;0.50;0.50;;;;;;;19.93;35.84;99694.00;4742726;30;20042;-83
2022/09/26 03:41:25;;;;;;;0.73;0.68;;;;;;;19.97;35.55;99714.09;4723664;30;20032;-83
2022/09/26 03:43:51;;;;;;;0.60;0.60;;;;;;;19.90;35.77;99686.38;4731474;30;20147;-83
2022/09/26 03:46:19;;;;;;;0.50;0.50;;;;;;;20.03;35.58;99714.91;4727038;30;20444;-83
2022/09/26 03:48:44;;;;;;;0.40;0.40;;;;;;;20.04;35.69;99706.53;4723459;30;20035;-83
2022/09/26 03:51:11;;;;;;;0.75;0.45;;;;;;;19.99;35.59;99697.53;4740936;30;20391;-83
2022/09/26 03:53:39;;;;;;;0.70;0.70;;;;;;;19.99;35.63;99692.94;4721003;30;20131;-83
2022/09/26 03:56:06;;;;;;;0.82;0.60;;;;;;;19.76;35.52;99660.88;4733551;30;20383;-83
2022/09/26 03:58:32;;;;;;;0.93;0.70;;;;;;;19.89;35.54;99688.28;4728218;30;20032;-83
2022/09/26 04:01:03;;;;;;;0.60;0.43;;;;;;;19.90;35.65;99686.38;4741823;30;20027;-83
2022/09/26 04:03:31;;;;;;;0.52;0.52;;;;;;;19.94;35.47;99694.81;4731487;30;20031;-83
2022/09/26 04:05:57;;;;;;;0.52;0.52;;;;;;;19.96;35.30;99692.66;4720995;30;20086;-83
2022/09/26 04:08:23;;;;;;;0.60;0.60;;;;;;;20.05;35.54;99701.91;4742068;30;20059;-83
2022/09/26 04:10:48;;;;;;;0.82;0.68;;;;;;;19.79;35.31;99672.00;4720203;30;20035;-83
2022/09/26 04:13:14;;;;;;;3.08;0.70;;;;;;;19.92;35.32;99686.13;4749297;30;20040;-82
2022/09/26 04:15:39;;;;;;;0.50;0.50;;;;;;;19.84;35.43;99679.34;4725176;30;20082;-82
2022/09/26 04:18:05;;;;;;;0.50;0.50;;;;;;;19.86;35.30;99680.69;4727192;30;20043;-83
2022/09/26 04:20:31;;;;;;;0.50;0.50;;;;;;;19.96;35.33;99689.94;4730007;30;20054;-83
2022/09/26 04:22:56;;;;;;;0.65;0.50;;;;;;;19.88;35.17;99681.22;4719949;30;20036;-83
2022/09/26 04:25:25;;;;;;;1.77;0.70;;;;;;;19.96;35.34;99693.47;4735088;30;20036;-82
2022/09/26 04:27:52;;;;;;;0.60;0.50;;;;;;;19.81;35.44;99669.03;4731891;30;20059;-82
2022/09/26 04:30:18;;;;;;;0.45;0.45;;;;;;;20.00;35.34;99705.41;4730310;30;20089;-82
2022/09/26 04:32:43;;;;;;;0.47;0.47;;;;;;;19.88;35.14;99691.28;4735144;30;20496;-82
2022/09/26 04:35:09;;;;;;;0.82;0.60;;;;;;;19.88;35.28;99692.06;4728582;30;20171;-82
2022/09/26 04:37:35;;;;;;;0.75;0.50;;;;;;;19.92;35.21;99703.22;4720132;30;20132;-82
2022/09/26 04:40:03;;;;;;;0.95;0.57;;;;;;;19.80;35.20;99673.63;4726431;30;20051;-82
2022/09/26 04:42:32;;;;;;;2.50;0.70;;;;;;;19.95;35.22;99702.69;4725587;30;20043;-82
2022/09/26 04:44:58;;;;;;;1.98;0.50;;;;;;;19.87;35.17;99684.22;4720030;30;20039;-82
2022/09/26 04:47:24;;;;;;;0.70;0.60;;;;;;;20.04;35.22;99714.66;4738389;30;20448;-82
2022/09/26 04:49:50;;;;;;;1.15;0.60;;;;;;;19.84;35.29;99677.44;4742283;30;20459;-82
2022/09/26 04:52:16;;;;;;;2.15;0.50;;;;;;;19.85;35.07;99683.66;4741543;30;20470;-82
2022/09/26 04:54:41;;;;;;;0.65;0.50;;;;;;;19.75;35.11;99660.06;4734952;30;20128;-82
2022/09/26 04:57:09;;;;;;;0.60;0.50;;;;;;;19.75;35.19;99672.78;4721111;30;20032;-82
2022/09/26 04:59:35;;;;;;;0.50;0.50;;;;;;;19.76;35.11;99677.94;4725240;30;20089;-82
2022/09/26 05:02:02;;;;;;;0.50;0.50;;;;;;;19.72;35.27;99670.59;4730006;30;20150;-84
2022/09/26 05:04:31;;;;;;;1.58;0.60;;;;;;;19.99;35.17;99719.22;4741558;30;20031;-82
2022/09/26 05:06:59;;;;;;;0.73;0.73;;;;;;;19.91;35.11;99701.59;4724249;30;20069;-82
2022/09/26 05:09:25;;;;;;;0.90;0.60;;;;;;;19.69;35.39;99670.03;4723513;30;20451;-84
2022/09/26 05:11:51;;;;;;;0.60;0.60;;;;;;;19.96;35.29;99717.88;4727719;30;20119;-83
2022/09/26 05:14:16;;;;;;;0.70;0.50;;;;;;;19.73;35.27;99683.06;4728623;30;20035;-83
2022/09/26 05:16:44;;;;;;;0.52;0.52;;;;;;;19.92;35.22;99705.94;4733455;30;20043;-83
2022/09/26 05:19:10;;;;;;;1.02;0.60;;;;;;;19.95;35.15;99718.13;4728001;30;20032;-83
2022/09/26 05:21:36;;;;;;;0.68;0.68;;;;;;;19.75;35.23;99691.75;4723487;30;20513;-83
2022/09/26 05:26:49;;;;;;;0.80;0.52;;;;;;;19.84;35.22;99712.69;4742988;30;20049;-82
2022/09/26 05:29:15;;;;;;;0.85;0.68;;;;;;;19.91;35.28;99722.47;4743508;30;20046;-83
2022/09/26 05:31:40;;;;;;;0.70;0.70;;;;;;;19.76;35.26;99690.69;4724677;30;20036;-83
2022/09/26 05:34:08;;;;;;;0.93;0.60;;;;;;;19.94;35.16;99714.63;4744395;30;20130;-83
2022/09/26 05:36:34;;;;;;;0.70;0.70;;;;;;;19.92;35.27;99715.97;4720711;30;20458;-83
2022/09/26 05:38:59;;;;;;;0.60;0.60;;;;;;;19.73;35.22;99672.22;4735795;30;20123;-83
2022/09/26 05:41:29;;;;;;;0.68;0.60;;;;;;;19.93;35.09;99712.97;4731086;30;20393;-83
2022/09/26 05:43:55;;;;;;;0.45;0.45;;;;;;;19.90;35.18;99716.22;4730060;30;20027;-83
2022/09/26 05:46:21;;;;;;;0.75;0.63;;;;;;;19.96;35.12;99703.50;4727720;30;20461;-83
2022/09/26 05:48:46;;;;;;;0.98;0.50;;;;;;;19.65;35.08;99660.00;4732392;30;20387;-83
2022/09/26 05:51:15;;;;;;;0.50;0.50;;;;;;;19.63;35.22;99657.53;4726653;30;20131;-83
2022/09/26 05:53:42;;;;;;;0.65;0.65;;;;;;;19.85;35.25;99686.38;4723987;30;20131;-83
2022/09/26 05:56:08;;;;;;;1.52;0.90;;;;;;;19.83;35.18;99685.81;4727485;30;20074;-83
2022/09/26 05:58:35;;;;;;;0.50;0.50;;;;;;;19.87;35.30;99689.66;4727655;30;20474;-83
2022/09/26 06:01:05;;;;;;;0.70;0.68;;;;;;;19.69;35.00;99672.72;4729615;30;20043;-83
2022/09/26 06:03:34;;;;;;;0.80;0.70;;;;;;;19.93;35.04;99699.41;4726695;30;20035;-83
2022/09/26 06:06:14;;;;;;;0.70;0.70;;;;;;;19.84;35.21;99685.56;4723254;30;20040;-82
2022/09/26 06:08:40;;;;;;;0.70;0.60;;;;;;;19.72;35.17;99679.53;4723855;30;20032;-82
2022/09/26 06:11:11;;;;;;;0.57;0.55;;;;;;;19.80;34.96;99683.66;4725398;30;20105;-83
2022/09/26 06:13:37;;;;;;;1.25;0.63;;;;;;;19.75;35.23;99681.75;4723392;30;20067;-83
2022/09/26 06:16:08;;;;;;;0.60;0.60;;;;;;;19.73;35.29;99677.63;4737704;30;20042;-82
2022/09/26 06:18:37;;;;;;;0.60;0.60;;;;;;;19.84;35.13;99695.59;4743335;30;20047;-82
2022/09/26 06:21:08;;;;;;;1.10;0.60;;;;;;;19.70;35.21;99677.09;4725046;30;20035;-83
2022/09/26 06:23:36;;;;;;;0.77;0.57;;;;;;;19.65;35.02;99671.66;4725817;30;20640;-83
2022/09/26 06:26:09;;;;;;;0.85;0.68;;;;;;;19.79;35.21;99709.94;4747685;30;20263;-83
2022/09/26 06:28:35;;;;;;;0.85;0.70;;;;;;;19.74;35.12;99687.41;4729198;30;20092;-83
2022/09/26 06:31:14;;;;;;;0.50;0.50;;;;;;;19.74;34.96;99685.53;4727438;30;20049;-83
2022/09/26 06:33:40;;;;;;;0.50;0.50;;;;;;;19.93;35.10;99715.69;4724340;30;20039;-82
2022/09/26 06:36:06;;;;;;;0.70;0.60;;;;;;;19.88;34.95;99707.53;4719585;30;20048;-83
2022/09/26 06:38:35;;;;;;;1.55;0.63;;;;;;;19.87;35.00;99700.50;4733296;30;20039;-83
2022/09/26 06:41:02;;;;;;;0.82;0.70;;;;;;;19.73;34.81;99683.06;4719181;30;20482;-83
2022/09/26 06:43:28;;;;;;;0.60;0.60;;;;;;;19.90;34.96;99713.50;4730944;30;20118;-83
2022/09/26 06:45:54;;;;;;;0.63;0.63;;;;;;;19.75;34.84;99686.34;4723327;30;20134;-83
2022/09/26 06:48:24;;;;;;;0.85;0.57;;;;;;;19.74;34.80;99690.13;4725888;30;20036;-83
2022/09/26 06:50:59;;;;;;;0.70;0.70;;;;;;;19.62;34.99;99671.34;4741961;30;20043;-83
2022/09/26 06:53:24;;;;;;;0.50;0.50;;;;;;;19.78;34.90;99704.78;4723040;30;20082;-83
2022/09/26 06:55:52;;;;;;;0.77;0.60;;;;;;;19.67;34.81;99691.16;4722387;30;20036;-83
2022/09/26 06:58:18;;;;;;;0.50;0.50;;;;;;;19.69;34.74;99690.91;4728626;30;20402;-83
2022/09/26 07:00:43;;;;;;;0.60;0.50;;;;;;;19.73;34.96;99702.03;4724126;30;20050;-83
2022/09/26 07:03:10;;;;;;;0.68;0.68;;;;;;;19.60;34.90;99687.88;4743373;30;20054;-83
2022/09/26 07:05:36;;;;;;;0.77;0.57;;;;;;;19.66;34.90;99700.41;4733025;30;20394;-83
2022/09/26 07:08:04;;;;;;;0.90;0.90;;;;;;;19.69;34.77;99702.56;4766080;30;20048;-83
2022/09/26 07:10:33;;;;;;;1.65;0.40;;;;;;;19.80;34.75;99732.44;4720082;30;20049;-83
2022/09/26 07:13:01;;;;;;;0.77;0.70;;;;;;;19.65;34.87;99704.16;4728543;30;20031;-83
2022/09/26 07:15:29;;;;;;;0.73;0.52;;;;;;;19.62;34.95;99701.97;4746824;30;20093;-83
2022/09/26 07:18:01;;;;;;;0.50;0.50;;;;;;;19.69;34.91;99705.25;4732503;30;20101;-83
2022/09/26 07:20:27;;;;;;;0.88;0.68;;;;;;;19.76;34.71;99724.03;4729900;30;20051;-83
2022/09/26 07:22:52;;;;;;;1.48;0.60;;;;;;;19.77;34.69;99724.88;4727026;30;20040;-83
2022/09/26 07:25:18;;;;;;;0.47;0.45;;;;;;;19.83;34.80;99734.63;4730012;30;20421;-83
2022/09/26 07:27:44;;;;;;;0.50;0.50;;;;;;;19.82;34.98;99735.72;4740189;30;20055;-84
2022/09/26 07:30:10;;;;;;;0.98;0.50;;;;;;;19.75;34.83;99724.28;4746700;30;20431;-83
2022/09/26 07:32:36;;;;;;;0.52;0.52;;;;;;;19.78;34.95;99734.59;4727581;30;20114;-83
2022/09/26 07:35:02;;;;;;;0.60;0.60;;;;;;;19.65;34.75;99719.63;4732443;30;20466;-83
2022/09/26 07:37:28;;;;;;;0.43;0.43;;;;;;;19.43;34.76;99673.72;4736080;30;20028;-83
2022/09/26 07:39:54;;;;;;;0.50;0.50;;;;;;;19.71;34.76;99723.97;4742238;30;20035;-84
2022/09/26 07:42:20;;;;;;;0.70;0.50;;;;;;;19.59;34.69;99702.53;4730683;30;20481;-83
2022/09/26 07:44:47;;;;;;;0.40;0.40;;;;;;;19.75;34.69;99724.28;4734477;30;20596;-83
2022/09/26 07:50:13;;;;;;;0.70;0.40;;;;;;;19.62;34.56;99701.19;4747711;30;20101;-83
2022/09/26 07:52:40;;;;;;;0.50;0.50;;;;;;;19.45;34.77;99676.97;4729212;30;20391;-83
2022/09/26 07:55:07;;;;;;;0.40;0.40;;;;;;;19.51;34.74;99687.56;4750068;30;20435;-82
2022/09/26 07:57:34;;;;;;;0.50;0.50;;;;;;;19.61;34.74;99705.78;4722147;30;20031;-83
2022/09/26 08:00:04;;;;;;;0.40;0.40;;;;;;;19.78;34.89;99735.44;4729735;30;20508;-83
2022/09/26 08:02:32;;;;;;;0.93;0.60;;;;;;;19.74;34.68;99722.66;4721270;30;20060;-83
2022/09/26 08:04:59;;;;;;;0.93;0.50;;;;;;;19.72;34.83;99727.53;4734265;30;20487;-83
2022/09/26 08:07:25;;;;;;;0.60;0.60;;;;;;;19.67;34.67;99726.41;4722870;30;20069;-83
2022/09/26 08:09:54;;;;;;;0.75;0.60;;;;;;;19.75;34.79;99740.56;4728768;30;20441;-82
2022/09/26 08:12:19;;;;;;;0.75;0.73;;;;;;;19.75;34.60;99735.97;4732068;30;20028;-82
2022/09/26 08:14:50;;;;;;;1.63;0.40;;;;;;;19.57;34.60;99715.50;4740760;30;20042;-83
2022/09/26 08:17:16;;;;;;;0.55;0.50;;;;;;;19.69;34.70;99726.13;4724647;30;20035;-83
2022/09/26 08:19:42;;;;;;;0.52;0.52;;;;;;;19.61;34.81;99707.66;4726974;30;20043;-83
2022/09/26 08:22:07;;;;;;;0.60;0.60;;;;;;;19.76;34.85;99747.63;4726153;30;20032;-83
2022/09/26 08:24:33;;;;;;;1.17;0.65;;;;;;;19.64;34.77;99718.78;4734543;30;20040;-83
2022/09/26 08:26:59;;;;;;;0.55;0.55;;;;;;;19.57;34.81;99712.81;4738416;30;20432;-83
2022/09/26 08:29:25;;;;;;;0.70;0.50;;;;;;;19.70;34.79;99728.59;4729080;30;20024;-83
2022/09/26 08:31:53;;;;;;;0.60;0.60;;;;;;;19.67;34.68;99734.53;4727115;30;20040;-82
2022/09/26 08:34:20;;;;;;;0.57;0.57;;;;;;;19.67;34.50;99723.69;4740814;30;20066;-83
2022/09/26 08:36:55;;;;;;;0.82;0.50;;;;;;;19.80;34.68;99748.72;4719838;30;20093;-83
2022/09/26 08:39:21;;;;;;;0.57;0.57;;;;;;;19.79;34.70;99741.69;4722187;30;20592;-83
2022/09/26 08:42:08;;;;;;;0.40;0.40;;;;;;;19.86;34.49;99744.97;4722246;30;20161;-83
2022/09/26 08:44:44;;;;;;;0.50;0.50;;;;;;;19.60;34.55;99706.84;4764855;30;20086;-83
2022/09/26 08:47:27;;;;;;;0.57;0.57;;;;;;;19.87;34.51;99749.31;4733565;30;20025;-82
2022/09/26 08:50:14;;;;;;;0.82;0.50;;;;;;;19.57;34.73;99701.97;4755987;30;20034;-83
2022/09/26 08:52:56;;;;;;;0.50;0.50;;;;;;;19.61;34.61;99708.50;4757477;30;20085;-83
2022/09/26 08:55:24;;;;;;;0.57;0.57;;;;;;;19.76;34.79;99734.06;4728343;30;20561;-83
2022/09/26 08:58:14;;;;;;;0.50;0.50;;;;;;;19.89;34.71;99736.31;4744256;30;20466;-82
2022/09/26 09:00:40;;;;;;;2.42;0.50;;;;;;;19.73;34.78;99721.00;4760327;30;20114;-83
2022/09/26 09:03:18;;;;;;;0.60;0.60;;;;;;;19.91;34.65;99755.81;4737071;30;20123;-82
2022/09/26 09:05:47;;;;;;;0.50;0.50;;;;;;;19.72;34.56;99725.63;4757696;30;20055;-82
2022/09/26 09:08:23;;;;;;;0.40;0.40;;;;;;;19.85;34.71;99729.75;4739202;30;20027;-82
2022/09/26 09:11:36;;;;;;;0.50;0.50;;;;;;;19.86;34.55;99734.09;4719668;30;20060;-83
2022/09/26 09:14:23;;;;;;;0.60;0.60;;;;;;;19.92;34.60;99752.03;4721027;30;20043;-83
2022/09/26 09:17:12;;;;;;;0.90;0.60;;;;;;;19.76;34.77;99726.75;4764434;30;20032;-82
2022/09/26 09:20:00;;;;;;;1.40;0.50;;;;;;;19.62;34.99;99710.13;4745627;30;20031;-83
2022/09/26 09:22:51;;;;;;;0.50;0.50;;;;;;;19.95;34.73;99762.34;4726837;30;20039;-83
2022/09/26 09:25:22;;;;;;;0.45;0.40;;;;;;;19.70;34.72;99723.16;4761281;30;20607;-83
2022/09/26 09:27:50;;;;;;;0.40;0.40;;;;;;;19.88;34.78;99743.59;4727342;30;21230;-83
2022/09/26 09:30:22;;;;;;;0.73;0.43;;;;;;;19.99;34.81;99752.59;4747059;30;20035;-83
2022/09/26 09:32:56;;;;;;;0.73;0.50;;;;;;;20.01;34.71;99753.16;4759036;30;20038;-82
2022/09/26 09:35:45;;;;;;;0.75;0.50;;;;;;;20.00;34.81;99756.13;4725588;30;20071;-82
2022/09/26 09:38:22;;;;;;;0.73;0.50;;;;;;;19.76;34.85;99715.91;4744568;30;20402;-82
2022/09/26 09:40:50;;;;;;;0.40;0.40;;;;;;;20.02;34.90;99745.81;4729321;30;20191;-83
2022/09/26 09:43:25;;;;;;;0.82;0.50;;;;;;;19.77;34.85;99712.13;4757384;30;20390;-82
2022/09/26 09:45:52;;;;;;;0.40;0.40;;;;;;;19.86;34.65;99720.56;4741330;30;20039;-83
2022/09/26 09:48:18;;;;;;;0.60;0.60;;;;;;;19.84;34.82;99720.00;4745841;30;20053;-83
2022/09/26 09:51:09;;;;;;;2.83;0.50;;;;;;;20.06;34.79;99753.16;4720988;30;20036;-82
2022/09/26 09:54:02;;;;;;;0.50;0.50;;;;;;;20.04;34.69;99744.50;4751399;30;20067;-82
2022/09/26 09:56:31;;;;;;;0.50;0.50;;;;;;;20.07;34.93;99748.56;4750539;30;20027;-83
2022/09/26 09:59:21;;;;;;;0.68;0.55;;;;;;;20.08;34.68;99745.56;4763840;30;20043;-83
2022/09/26 10:01:48;;;;;;;0.50;0.50;;;;;;;20.08;34.82;99740.16;4747712;30;20086;-82
2022/09/26 10:04:32;;;;;;;0.80;0.60;;;;;;;20.11;34.61;99744.25;4721784;30;20599;-82
2022/09/26 10:07:00;;;;;;;0.68;0.60;;;;;;;19.96;34.89;99731.44;4743592;30;20043;-82
2022/09/26 10:09:35;;;;;;;0.90;0.52;;;;;;;20.03;34.64;99745.56;4741742;30;20032;-82
2022/09/26 10:12:00;;;;;;;0.50;0.50;;;;;;;19.84;34.65;99717.28;4723513;30;20038;-82
2022/09/26 10:14:40;;;;;;;0.75;0.60;;;;;;;20.14;34.78;99748.31;4745382;30;20027;-82
2022/09/26 10:17:09;;;;;;;0.50;0.50;;;;;;;20.16;34.77;99748.84;4741798;30;20066;-82
2022/09/26 10:19:38;;;;;;;0.77;0.55;;;;;;;20.16;34.67;99738.00;4760793;30;20036;-82
2022/09/26 10:22:08;;;;;;;0.60;0.60;;;;;;;20.13;34.68;99738.53;4747900;30;20107;-82
2022/09/26 10:24:39;;;;;;;2.20;0.60;;;;;;;20.12;34.71;99745.06;4729338;30;20104;-82
2022/09/26 10:27:40;;;;;;;1.05;0.52;;;;;;;20.13;34.79;99739.38;4733432;30;20032;-82
2022/09/26 10:30:30;;;;;;;7.88;0.60;;;;;;;20.15;34.72;99737.19;4726112;30;20059;-82
2022/09/26 10:32:57;;;;;;;0.63;0.57;;;;;;;20.22;34.75;99755.94;4729018;30;20035;-82
2022/09/26 10:35:29;;;;;;;0.82;0.43;;;;;;;20.06;34.86;99728.75;4721674;30;20307;-82
2022/09/26 10:37:54;;;;;;;0.50;0.50;;;;;;;20.23;34.76;99757.56;4749825;30;20070;-82
2022/09/26 10:43:33;;;;;;;0.80;0.60;;;;;;;20.24;34.87;99760.00;4722585;30;20056;-82
2022/09/26 10:46:19;;;;;;;1.00;0.60;;;;;;;19.99;34.73;99736.34;4735159;30;20664;-82
2022/09/26 10:48:53;;;;;;;0.40;0.40;;;;;;;20.04;34.61;99739.06;4746157;30;20514;-82
2022/09/26 10:51:30;;;;;;;0.50;0.50;;;;;;;20.15;34.74;99763.50;4727613;30;20040;-83
2022/09/26 10:54:12;;;;;;;0.65;0.50;;;;;;;20.12;34.79;99745.06;4755745;30;20044;-83
2022/09/26 10:56:45;;;;;;;1.10;0.50;;;;;;;20.00;34.74;99727.09;4727736;30;20089;-82
2022/09/26 10:59:15;;;;;;;2.22;0.63;;;;;;;20.20;34.80;99758.09;4738740;30;20043;-82
2022/09/26 11:01:46;;;;;;;0.68;0.40;;;;;;;19.87;34.59;99716.78;4722272;30;20052;-82
2022/09/26 11:05:55;;;;;;;0.43;0.43;;;;;;;20.12;34.78;99750.47;4736775;30;20114;-83
2022/09/26 11:07:00;;;;;;;0.68;0.50;;;;;;;20.24;34.87;99764.63;4743446;30;20081;-83
2022/09/26 11:09:26;;;;;;;0.68;0.50;;;;;;;20.08;34.69;99750.19;4734931;30;20036;-82
2022/09/26 11:11:52;;;;;;;1.55;0.55;;;;;;;19.97;34.63;99727.66;4745969;30;20062;-83
2022/09/26 11:14:31;;;;;;;1.33;0.65;;;;;;;20.27;34.76;99772.22;4736632;30;20571;-82
2022/09/26 11:16:59;;;;;;;1.17;0.73;;;;;;;20.16;34.79;99755.13;4730434;30;20161;-82
2022/09/26 11:19:48;;;;;;;0.63;0.40;;;;;;;20.15;34.58;99758.91;4729438;30;20035;-83
2022/09/26 11:22:25;;;;;;;1.13;0.40;;;;;;;20.05;34.86;99746.09;4728911;30;20038;-82
2022/09/26 11:24:58;;;;;;;1.00;0.63;;;;;;;20.06;34.74;99752.38;4744775;30;20776;-82
2022/09/26 11:27:30;;;;;;;0.90;0.30;;;;;;;20.24;34.67;99765.41;4752810;30;20401;-82
2022/09/26 11:30:13;;;;;;;0.40;0.40;;;;;;;20.23;34.89;99762.97;4721092;30;20081;-83
2022/09/26 11:32:43;;;;;;;0.50;0.40;;;;;;;20.07;34.88;99751.28;4736549;30;20028;-82
2022/09/26 11:35:13;;;;;;;0.50;0.50;;;;;;;20.06;34.63;99739.63;4730251;30;20031;-82
2022/09/26 11:38:04;;;;;;;0.50;0.50;;;;;;;20.27;34.76;99769.50;4755150;30;20058;-83
2022/09/26 11:40:48;;;;;;;0.70;0.45;;;;;;;20.12;34.98;99755.91;4752837;30;20082;-82
2022/09/26 11:43:43;;;;;;;0.77;0.50;;;;;;;20.28;34.94;99776.56;4728573;30;20035;-82
2022/09/26 11:46:28;;;;;;;0.52;0.50;;;;;;;20.30;34.84;99777.13;4758308;30;20266;-82
2022/09/26 11:49:23;;;;;;;0.60;0.47;;;;;;;20.08;34.88;99745.56;4746567;30;20032;-82
2022/09/26 11:52:01;;;;;;;0.50;0.50;;;;;;;20.31;34.73;99776.03;4746300;30;20127;-82
2022/09/26 11:54:46;;;;;;;0.50;0.50;;;;;;;20.29;34.82;99775.47;4752210;30;20063;-83
2022/09/26 11:57:16;;;;;;;0.60;0.50;;;;;;;20.13;34.97;99746.66;4757823;30;20039;-82
2022/09/26 12:00:07;;;;;;;0.65;0.63;;;;;;;20.15;34.80;99752.66;4752163;30;20092;-82
2022/09/26 12:03:37;;;;;;;0.60;0.50;;;;;;;20.07;34.83;99735.84;4738872;30;20129;-83